Time;durP1;ratioP1;P1;durP2;ratioP2;P2;SDS_P1;SDS_P2;PMS_P1;PMS_P2;Temp;Humidity;BMP_temperature;BMP_pressure;BME280_temperature;BME280_humidity;BME280_pressure;Samples;Min_cycle;Max_cycle;Signal;HPM_P1;HPM_P2
2021/10/20 00:00:27;;;;;;;12.30;7.95;;;16.30;99.90;;;;;;5052962;28;20048;-60
2021/10/20 00:02:55;;;;;;;11.48;7.38;;;16.20;99.90;;;;;;5053311;28;20059;-59
2021/10/20 00:05:23;;;;;;;11.52;7.07;;;16.20;99.90;;;;;;5041085;28;20533;-59
2021/10/20 00:07:51;;;;;;;10.32;6.82;;;16.20;99.90;;;;;;5048362;28;20069;-60
2021/10/20 00:10:20;;;;;;;10.07;7.45;;;16.20;99.90;;;;;;5010999;28;20052;-59
2021/10/20 00:12:50;;;;;;;11.45;6.93;;;16.20;99.90;;;;;;5038328;28;20048;-60
2021/10/20 00:15:21;;;;;;;16.48;8.55;;;16.20;99.90;;;;;;5044156;28;20043;-59
2021/10/20 00:17:49;;;;;;;12.25;7.85;;;16.20;99.90;;;;;;5022463;28;20099;-59
2021/10/20 00:20:21;;;;;;;11.52;7.72;;;16.20;99.90;;;;;;5039044;28;20507;-59
2021/10/20 00:22:50;;;;;;;11.32;7.35;;;16.20;99.90;;;;;;5056201;28;20045;-60
2021/10/20 00:25:18;;;;;;;10.35;7.10;;;16.20;99.90;;;;;;5039056;28;20040;-59
2021/10/20 00:27:46;;;;;;;13.35;7.55;;;16.20;99.90;;;;;;5039084;28;20037;-60
2021/10/20 00:30:16;;;;;;;10.68;7.30;;;16.20;99.90;;;;;;5022016;28;20061;-60
2021/10/20 00:32:44;;;;;;;11.95;7.88;;;16.20;99.90;;;;;;5022111;28;20103;-59
2021/10/20 00:35:12;;;;;;;10.80;6.93;;;16.10;99.90;;;;;;5038738;28;20045;-60
2021/10/20 00:37:40;;;;;;;10.70;6.63;;;16.10;99.90;;;;;;5038720;28;20037;-59
2021/10/20 00:40:09;;;;;;;9.48;6.88;;;16.10;99.90;;;;;;5038701;28;20493;-59
2021/10/20 00:42:37;;;;;;;11.18;7.00;;;16.10;99.90;;;;;;5056111;28;20146;-59
2021/10/20 00:45:06;;;;;;;10.18;6.88;;;16.10;99.90;;;;;;5038664;28;20127;-59
2021/10/20 00:47:35;;;;;;;10.68;7.47;;;16.10;99.90;;;;;;5005670;28;20052;-59
2021/10/20 00:50:07;;;;;;;11.13;7.60;;;16.10;99.90;;;;;;5021547;28;21037;-60
2021/10/20 00:52:34;;;;;;;10.02;6.45;;;16.10;99.90;;;;;;5056136;28;20065;-59
2021/10/20 00:55:04;;;;;;;11.77;6.40;;;16.20;99.90;;;;;;5038367;28;20052;-59
2021/10/20 00:57:32;;;;;;;8.68;5.97;;;16.10;99.90;;;;;;5038338;28;20068;-60
2021/10/20 01:00:03;;;;;;;8.98;6.43;;;16.10;99.90;;;;;;5021874;28;20040;-59
2021/10/20 01:02:31;;;;;;;9.90;6.15;;;16.10;99.90;;;;;;5021548;28;20045;-59
2021/10/20 01:04:58;;;;;;;9.55;6.75;;;16.00;99.90;;;;;;5038209;28;20383;-59
2021/10/20 01:07:26;;;;;;;9.63;6.65;;;16.00;99.90;;;;;;5038155;28;20044;-60
2021/10/20 01:09:54;;;;;;;9.27;6.63;;;16.00;99.90;;;;;;5021764;28;20057;-59
2021/10/20 01:12:22;;;;;;;9.07;6.07;;;16.00;99.90;;;;;;5038014;28;20048;-59
2021/10/20 01:14:49;;;;;;;11.88;7.25;;;16.00;99.90;;;;;;5037366;28;20041;-59
2021/10/20 01:17:18;;;;;;;11.77;7.03;;;16.00;99.90;;;;;;5037785;28;20084;-60
2021/10/20 01:19:45;;;;;;;10.75;6.30;;;16.00;99.90;;;;;;5038000;28;20033;-59
2021/10/20 01:22:14;;;;;;;9.50;7.40;;;16.00;99.90;;;;;;5037450;28;20492;-59
2021/10/20 01:24:42;;;;;;;11.35;6.50;;;16.00;99.90;;;;;;5037853;28;20127;-59
2021/10/20 01:27:09;;;;;;;9.57;6.53;;;16.00;99.90;;;;;;5038032;28;20553;-60
2021/10/20 01:29:37;;;;;;;9.30;6.85;;;16.00;99.90;;;;;;5037760;28;20044;-60
2021/10/20 01:32:05;;;;;;;9.90;6.50;;;15.90;99.90;;;;;;5038020;28;20376;-59
2021/10/20 01:34:34;;;;;;;9.88;6.35;;;15.90;99.90;;;;;;5021592;28;20091;-60
2021/10/20 01:37:03;;;;;;;10.55;7.03;;;15.90;99.90;;;;;;5020787;28;20156;-60
2021/10/20 01:39:32;;;;;;;10.55;6.60;;;15.90;99.90;;;;;;5021068;28;20052;-59
2021/10/20 01:42:00;;;;;;;9.93;6.93;;;15.90;99.90;;;;;;5055053;28;20051;-59
2021/10/20 01:44:28;;;;;;;10.05;7.25;;;15.90;99.90;;;;;;5021024;28;20114;-60
2021/10/20 01:46:56;;;;;;;10.60;6.70;;;15.90;99.90;;;;;;5055165;28;20049;-59
2021/10/20 01:49:24;;;;;;;9.18;7.25;;;15.90;99.90;;;;;;5012880;28;20056;-59
2021/10/20 01:51:52;;;;;;;9.48;6.43;;;15.90;99.90;;;;;;5037418;28;20431;-59
2021/10/20 01:54:20;;;;;;;10.43;6.90;;;15.80;99.90;;;;;;5037007;28;20499;-59
2021/10/20 01:56:48;;;;;;;8.93;6.70;;;15.80;99.90;;;;;;5037312;28;20059;-59
2021/10/20 01:59:16;;;;;;;11.27;7.07;;;15.80;99.90;;;;;;5037285;28;20487;-60
2021/10/20 02:01:44;;;;;;;13.10;8.68;;;15.80;99.90;;;;;;5037137;28;20045;-59
2021/10/20 02:04:13;;;;;;;11.43;7.57;;;15.80;99.90;;;;;;5037270;28;20072;-59
2021/10/20 02:06:43;;;;;;;11.05;8.27;;;15.80;99.90;;;;;;5020664;28;20163;-59
2021/10/20 02:09:13;;;;;;;12.25;7.13;;;15.80;99.90;;;;;;5054593;28;20041;-60
2021/10/20 02:11:42;;;;;;;12.02;6.95;;;15.80;99.90;;;;;;5037183;28;20048;-59
2021/10/20 02:14:12;;;;;;;10.18;7.43;;;15.70;99.90;;;;;;5036772;28;20514;-60
2021/10/20 02:16:40;;;;;;;10.07;7.68;;;15.70;99.90;;;;;;5036707;28;20059;-59
2021/10/20 02:19:11;;;;;;;9.82;6.78;;;15.70;99.90;;;;;;5021085;28;20125;-59
2021/10/20 02:21:39;;;;;;;9.43;7.18;;;15.70;99.90;;;;;;5036797;28;20072;-59
2021/10/20 02:24:07;;;;;;;10.15;7.15;;;15.70;99.90;;;;;;5036513;28;20048;-59
2021/10/20 02:26:34;;;;;;;12.98;7.80;;;15.70;99.90;;;;;;5036717;28;20052;-60
2021/10/20 02:29:02;;;;;;;12.90;7.13;;;15.70;99.90;;;;;;5020230;28;20491;-60
2021/10/20 02:31:30;;;;;;;12.15;7.15;;;15.80;99.90;;;;;;5036523;28;20064;-60
2021/10/20 02:33:57;;;;;;;14.13;7.55;;;15.70;99.90;;;;;;5054242;28;20045;-60
2021/10/20 02:36:25;;;;;;;8.40;6.20;;;15.80;99.90;;;;;;5036581;28;20049;-60
2021/10/20 02:38:52;;;;;;;8.30;7.13;;;15.80;99.90;;;;;;5020024;28;20051;-59
2021/10/20 02:41:20;;;;;;;12.38;8.23;;;15.80;99.90;;;;;;5036381;28;20045;-59
2021/10/20 02:43:47;;;;;;;14.68;7.03;;;15.70;99.90;;;;;;5036101;28;20049;-59
2021/10/20 02:46:15;;;;;;;12.05;6.80;;;15.70;99.90;;;;;;5036121;28;20107;-59
2021/10/20 02:48:44;;;;;;;11.25;7.80;;;15.60;99.90;;;;;;5053921;28;20037;-60
2021/10/20 02:51:12;;;;;;;13.32;7.10;;;15.60;99.90;;;;;;5036019;28;20476;-59
2021/10/20 02:53:39;;;;;;;11.73;7.97;;;15.60;99.90;;;;;;5036504;28;20079;-59
2021/10/20 02:56:07;;;;;;;13.02;7.63;;;15.50;99.90;;;;;;5036186;28;20057;-59
2021/10/20 02:58:35;;;;;;;14.55;9.95;;;15.50;99.90;;;;;;5036400;28;20491;-59
2021/10/20 03:01:02;;;;;;;11.18;7.78;;;15.50;99.90;;;;;;5036035;28;20491;-59
2021/10/20 03:03:30;;;;;;;11.82;7.88;;;15.50;99.90;;;;;;5035790;28;20048;-59
2021/10/20 03:05:57;;;;;;;12.73;7.95;;;15.50;99.90;;;;;;5035756;28;20434;-59
2021/10/20 03:08:25;;;;;;;12.63;7.95;;;15.40;99.90;;;;;;5035970;28;20037;-59
2021/10/20 03:10:53;;;;;;;12.27;8.13;;;15.50;99.90;;;;;;5035993;28;20045;-59
2021/10/20 03:13:20;;;;;;;13.50;9.07;;;15.50;99.90;;;;;;5035664;28;20131;-59
2021/10/20 03:15:48;;;;;;;11.40;7.78;;;15.50;99.90;;;;;;5035926;28;20051;-59
2021/10/20 03:18:15;;;;;;;20.35;8.88;;;15.50;99.90;;;;;;5035768;28;20392;-59
2021/10/20 03:20:43;;;;;;;12.50;8.27;;;15.60;99.90;;;;;;5035932;28;20037;-59
2021/10/20 03:23:10;;;;;;;12.90;8.80;;;15.60;99.90;;;;;;5019555;28;20044;-59
2021/10/20 03:25:38;;;;;;;13.07;9.40;;;15.60;99.90;;;;;;5035874;28;20525;-59
2021/10/20 03:28:06;;;;;;;13.35;8.50;;;15.70;99.90;;;;;;5035705;28;20045;-59
2021/10/20 03:30:33;;;;;;;11.38;8.00;;;15.60;99.90;;;;;;5035463;28;20077;-59
2021/10/20 03:33:01;;;;;;;10.50;7.53;;;15.70;99.90;;;;;;5019314;28;20056;-59
2021/10/20 03:35:28;;;;;;;12.40;8.00;;;15.70;99.90;;;;;;5052904;28;20582;-59
2021/10/20 03:37:56;;;;;;;13.55;9.50;;;15.70;99.90;;;;;;5022391;28;20045;-59
2021/10/20 03:40:23;;;;;;;11.75;7.40;;;15.70;99.90;;;;;;5039862;28;20040;-59
2021/10/20 03:42:52;;;;;;;12.43;7.35;;;15.70;99.90;;;;;;5040148;28;20152;-59
2021/10/20 03:45:20;;;;;;;12.40;8.25;;;15.70;99.90;;;;;;5023267;28;20051;-59
2021/10/20 03:47:48;;;;;;;11.05;7.53;;;15.70;99.90;;;;;;5039645;28;20446;-59
2021/10/20 03:50:15;;;;;;;14.35;7.22;;;15.70;99.90;;;;;;5057098;28;20067;-60
2021/10/20 03:52:43;;;;;;;11.25;7.13;;;15.70;99.90;;;;;;5057150;28;20044;-59
2021/10/20 03:55:11;;;;;;;12.10;7.20;;;15.70;99.90;;;;;;5056922;28;20053;-59
2021/10/20 03:57:40;;;;;;;11.75;7.80;;;15.70;99.90;;;;;;5039406;28;20052;-59
2021/10/20 04:00:14;;;;;;;15.02;8.90;;;15.70;99.90;;;;;;5023100;28;20103;-59
2021/10/20 04:02:43;;;;;;;10.57;8.18;;;15.70;99.90;;;;;;5056811;28;20044;-59
2021/10/20 04:05:18;;;;;;;13.32;9.13;;;15.70;99.90;;;;;;5056921;28;20056;-59
2021/10/20 04:07:48;;;;;;;11.03;8.20;;;15.70;99.90;;;;;;5039231;28;20045;-59
2021/10/20 04:10:26;;;;;;;15.57;8.70;;;15.70;99.90;;;;;;5039368;28;20291;-59
2021/10/20 04:12:54;;;;;;;10.95;7.80;;;15.70;99.90;;;;;;5022907;28;20057;-59
2021/10/20 04:15:25;;;;;;;17.73;8.32;;;15.70;99.90;;;;;;5039166;28;20124;-59
2021/10/20 04:17:53;;;;;;;12.05;7.97;;;15.70;99.90;;;;;;5022488;28;20059;-59
2021/10/20 04:20:22;;;;;;;12.98;8.50;;;15.70;99.90;;;;;;5039033;28;20423;-59
2021/10/20 04:22:51;;;;;;;13.02;8.40;;;15.70;99.90;;;;;;5056983;28;20045;-59
2021/10/20 04:25:19;;;;;;;13.02;8.20;;;15.70;99.90;;;;;;5038986;28;20051;-59
2021/10/20 04:27:48;;;;;;;11.15;8.10;;;15.70;99.90;;;;;;5038777;28;20128;-59
2021/10/20 04:30:18;;;;;;;11.57;9.40;;;15.70;99.90;;;;;;5005929;28;20053;-59
2021/10/20 04:32:45;;;;;;;11.98;8.40;;;15.70;99.90;;;;;;5021831;28;20049;-59
2021/10/20 04:35:14;;;;;;;12.82;8.95;;;15.60;99.90;;;;;;5038639;28;20444;-59
2021/10/20 04:37:41;;;;;;;14.13;8.70;;;15.60;99.90;;;;;;5038544;28;20045;-59
2021/10/20 04:40:10;;;;;;;12.13;8.60;;;15.60;99.90;;;;;;5038552;28;20080;-58
2021/10/20 04:42:40;;;;;;;14.32;9.65;;;15.60;99.90;;;;;;5005748;28;20051;-59
2021/10/20 04:45:08;;;;;;;13.40;8.38;;;15.60;99.90;;;;;;5038623;28;20049;-59
2021/10/20 04:47:36;;;;;;;16.98;10.15;;;15.60;99.90;;;;;;5037689;28;20457;-59
2021/10/20 04:50:07;;;;;;;14.13;8.68;;;15.60;99.90;;;;;;5037753;28;20071;-59
2021/10/20 04:52:35;;;;;;;11.48;8.70;;;15.60;99.90;;;;;;5038320;28;20048;-59
2021/10/20 04:55:04;;;;;;;15.25;8.80;;;15.60;99.90;;;;;;5038029;28;20052;-59
2021/10/20 04:57:33;;;;;;;12.95;8.38;;;15.50;99.90;;;;;;5021669;28;20048;-59
2021/10/20 05:00:01;;;;;;;16.15;9.43;;;15.60;99.90;;;;;;5005142;28;20143;-59
2021/10/20 05:02:35;;;;;;;13.02;8.82;;;15.50;99.90;;;;;;5037865;28;20041;-59
2021/10/20 05:05:06;;;;;;;17.10;9.30;;;15.50;99.90;;;;;;5037967;28;20041;-59
2021/10/20 05:07:44;;;;;;;13.00;8.50;;;15.50;99.90;;;;;;5055875;28;20500;-59
2021/10/20 05:10:12;;;;;;;14.40;9.50;;;15.60;99.90;;;;;;5038409;28;20053;-59
2021/10/20 05:12:40;;;;;;;14.43;10.25;;;15.60;99.90;;;;;;5038408;28;20037;-59
2021/10/20 05:15:08;;;;;;;13.25;9.55;;;15.60;99.90;;;;;;5038309;28;20372;-59
2021/10/20 05:17:35;;;;;;;13.68;9.18;;;15.60;99.90;;;;;;5037833;28;20057;-60
2021/10/20 05:20:03;;;;;;;11.95;8.80;;;15.60;99.90;;;;;;5021075;28;20058;-60
2021/10/20 05:22:31;;;;;;;17.23;9.88;;;15.70;99.90;;;;;;5037816;28;20060;-59
2021/10/20 05:24:59;;;;;;;12.65;8.57;;;15.80;99.90;;;;;;5037764;28;20048;-59
2021/10/20 05:27:27;;;;;;;13.63;8.88;;;15.80;99.90;;;;;;5021250;28;20475;-59
2021/10/20 05:29:54;;;;;;;11.60;9.00;;;16.00;99.90;;;;;;5037855;28;20041;-59
2021/10/20 05:32:22;;;;;;;11.93;8.65;;;16.10;99.90;;;;;;5037698;28;20143;-59
2021/10/20 05:34:49;;;;;;;15.63;9.70;;;16.20;99.90;;;;;;5037518;28;20514;-59
2021/10/20 05:37:17;;;;;;;12.43;8.95;;;16.30;99.90;;;;;;5037474;28;20036;-59
2021/10/20 05:39:47;;;;;;;14.23;9.27;;;16.40;99.90;;;;;;5037375;28;20553;-58
2021/10/20 05:42:17;;;;;;;11.07;9.00;;;16.60;99.90;;;;;;5037485;28;20036;-59
2021/10/20 05:44:45;;;;;;;14.18;9.70;;;16.70;99.90;;;;;;5037287;28;20384;-59
2021/10/20 05:47:14;;;;;;;16.30;9.30;;;16.80;99.90;;;;;;5037406;28;20047;-59
2021/10/20 05:49:42;;;;;;;19.35;8.65;;;17.00;99.90;;;;;;5020796;28;20037;-59
2021/10/20 05:52:09;;;;;;;13.77;9.05;;;17.20;99.90;;;;;;5037210;28;20037;-59
2021/10/20 05:54:37;;;;;;;13.70;8.73;;;17.40;99.90;;;;;;5054911;28;20514;-59
2021/10/20 05:57:04;;;;;;;11.90;8.70;;;17.60;99.90;;;;;;5036828;28;20044;-59
2021/10/20 05:59:32;;;;;;;12.00;8.43;;;17.80;99.90;;;;;;5036341;28;20041;-59
2021/10/20 06:01:59;;;;;;;11.05;8.13;;;18.10;99.90;;;;;;5036323;28;20057;-60
2021/10/20 06:04:27;;;;;;;11.25;8.43;;;18.30;99.90;;;;;;5036862;28;20041;-59
2021/10/20 06:06:54;;;;;;;11.48;7.93;;;18.60;99.90;;;;;;5036561;28;20057;-59
2021/10/20 06:09:23;;;;;;;10.30;7.13;;;18.90;99.90;;;;;;5054389;28;20045;-59
2021/10/20 06:11:51;;;;;;;11.10;8.18;;;19.30;99.90;;;;;;5054365;28;20037;-59
2021/10/20 06:14:18;;;;;;;15.15;8.27;;;19.60;99.90;;;;;;5036823;28;20054;-59
2021/10/20 06:16:46;;;;;;;13.32;8.57;;;20.00;99.90;;;;;;5054240;28;20052;-59
2021/10/20 06:19:14;;;;;;;11.43;7.75;;;20.40;99.60;;;;;;5036822;28;20106;-59
2021/10/20 06:21:41;;;;;;;9.23;7.10;;;20.70;99.10;;;;;;5036717;28;20094;-60
2021/10/20 06:24:09;;;;;;;12.70;7.30;;;21.20;98.60;;;;;;5039670;28;20119;-59
2021/10/20 06:26:36;;;;;;;10.80;7.13;;;21.70;98.10;;;;;;5046649;28;20053;-58
2021/10/20 06:29:04;;;;;;;9.65;7.45;;;22.10;97.40;;;;;;5049041;28;20434;-58
2021/10/20 06:31:32;;;;;;;11.10;6.88;;;22.60;96.80;;;;;;5051224;28;20041;-58
2021/10/20 06:34:00;;;;;;;10.25;6.65;;;23.00;96.30;;;;;;5038914;28;20117;-58
2021/10/20 06:36:36;;;;;;;12.90;6.30;;;23.20;95.90;;;;;;5053948;28;20061;-59
2021/10/20 06:39:04;;;;;;;10.15;6.50;;;23.30;95.60;;;;;;5034850;28;20076;-59
2021/10/20 06:41:32;;;;;;;8.85;6.32;;;23.30;95.70;;;;;;5039484;28;20052;-57
2021/10/20 06:43:59;;;;;;;11.05;6.43;;;23.10;95.80;;;;;;5044535;28;20069;-57
2021/10/20 06:46:27;;;;;;;8.50;5.97;;;22.90;96.10;;;;;;5054160;28;20052;-58
2021/10/20 06:48:55;;;;;;;9.68;5.75;;;22.70;96.50;;;;;;5033418;28;20441;-57
2021/10/20 06:51:23;;;;;;;8.82;5.70;;;22.50;96.70;;;;;;5055049;28;20182;-58
2021/10/20 06:53:50;;;;;;;11.43;5.57;;;22.50;96.90;;;;;;5054087;28;20045;-57
2021/10/20 06:56:18;;;;;;;11.02;6.13;;;22.50;96.90;;;;;;5045975;28;20029;-57
2021/10/20 06:58:45;;;;;;;9.38;6.30;;;22.60;96.90;;;;;;5050743;28;20072;-58
2021/10/20 07:01:13;;;;;;;9.35;5.20;;;22.70;96.80;;;;;;5055232;28;20040;-58
2021/10/20 07:03:40;;;;;;;11.35;5.70;;;22.70;96.80;;;;;;5063730;28;20040;-57
2021/10/20 07:06:08;;;;;;;6.32;5.07;;;22.70;96.80;;;;;;5062293;28;20090;-57
2021/10/20 07:08:36;;;;;;;7.22;5.00;;;22.70;96.80;;;;;;5050544;28;20051;-57
2021/10/20 07:11:04;;;;;;;9.70;6.05;;;22.70;96.90;;;;;;5048373;28;20041;-58
2021/10/20 07:13:31;;;;;;;9.02;5.55;;;22.60;97.10;;;;;;5036828;28;20055;-57
2021/10/20 07:15:59;;;;;;;10.27;5.65;;;22.60;97.20;;;;;;5044898;28;20510;-58
2021/10/20 07:18:29;;;;;;;10.82;5.82;;;22.50;97.30;;;;;;5040278;28;20068;-57
2021/10/20 07:20:56;;;;;;;11.60;7.07;;;22.50;97.40;;;;;;5055022;28;20047;-57
2021/10/20 07:23:24;;;;;;;8.82;5.70;;;22.50;97.40;;;;;;5044908;28;20048;-57
2021/10/20 07:25:52;;;;;;;10.45;5.85;;;22.40;97.50;;;;;;5027057;28;20055;-58
2021/10/20 07:28:20;;;;;;;13.48;6.03;;;22.50;97.50;;;;;;5027858;28;20045;-59
2021/10/20 07:30:47;;;;;;;7.53;5.07;;;22.50;97.50;;;;;;5054381;28;20520;-58
2021/10/20 07:33:15;;;;;;;8.32;5.90;;;22.50;97.40;;;;;;5071071;28;20060;-58
2021/10/20 07:35:43;;;;;;;8.65;6.07;;;22.60;97.40;;;;;;5043352;28;20041;-57
2021/10/20 07:38:10;;;;;;;8.45;5.78;;;22.60;97.40;;;;;;5044972;28;20537;-58
2021/10/20 07:40:38;;;;;;;8.93;5.95;;;22.50;96.90;;;;;;5054013;28;20491;-57
2021/10/20 07:43:06;;;;;;;8.23;5.07;;;22.50;96.90;;;;;;5072117;28;20044;-57
2021/10/20 07:45:34;;;;;;;12.57;6.88;;;22.60;97.10;;;;;;5038633;28;20141;-57
2021/10/20 07:48:03;;;;;;;8.25;5.20;;;22.60;97.20;;;;;;5037207;28;20360;-57
2021/10/20 07:50:32;;;;;;;10.52;5.20;;;22.70;97.00;;;;;;5055585;28;20478;-58
2021/10/20 07:53:00;;;;;;;9.05;4.82;;;22.70;96.80;;;;;;5038793;28;20059;-58
2021/10/20 07:55:28;;;;;;;8.20;4.40;;;22.80;96.40;;;;;;5038984;28;20079;-57
2021/10/20 07:57:56;;;;;;;6.50;4.35;;;22.90;95.60;;;;;;5072875;28;20508;-57
2021/10/20 08:00:25;;;;;;;6.47;3.95;;;23.00;94.90;;;;;;5038404;28;20386;-57
2021/10/20 08:02:52;;;;;;;5.85;3.88;;;23.00;94.70;;;;;;5038154;28;20048;-57
2021/10/20 08:05:21;;;;;;;7.25;3.83;;;23.10;94.60;;;;;;5055258;28;20471;-57
2021/10/20 08:07:51;;;;;;;5.38;3.45;;;23.10;94.10;;;;;;5038580;28;20052;-57
2021/10/20 08:10:23;;;;;;;4.93;3.38;;;23.20;93.80;;;;;;5055583;28;20040;-57
2021/10/20 08:12:52;;;;;;;6.80;3.42;;;23.10;93.20;;;;;;5072975;28;20449;-57
2021/10/20 08:15:20;;;;;;;5.47;3.42;;;23.20;92.80;;;;;;5038336;28;20063;-58
2021/10/20 08:17:48;;;;;;;4.88;3.17;;;23.30;92.40;;;;;;5055233;28;20052;-58
2021/10/20 08:20:19;;;;;;;7.10;3.65;;;23.30;92.60;;;;;;5055050;28;20122;-57
2021/10/20 08:22:47;;;;;;;5.10;3.45;;;23.40;92.60;;;;;;5039838;28;20055;-57
2021/10/20 08:25:16;;;;;;;6.47;4.03;;;23.50;92.50;;;;;;5058672;28;20047;-57
2021/10/20 08:27:44;;;;;;;5.53;3.78;;;23.50;92.50;;;;;;5058838;28;20064;-57
2021/10/20 08:30:17;;;;;;;6.68;4.45;;;23.50;92.40;;;;;;5058879;28;20123;-57
2021/10/20 08:32:56;;;;;;;7.10;4.18;;;23.60;92.40;;;;;;5042392;28;20052;-57
2021/10/20 08:35:24;;;;;;;7.93;4.53;;;23.60;92.20;;;;;;5076806;28;20043;-57
2021/10/20 08:37:56;;;;;;;8.57;3.58;;;23.60;92.10;;;;;;5058711;28;20126;-57
2021/10/20 08:40:28;;;;;;;4.53;3.40;;;23.60;92.00;;;;;;5058693;28;20048;-58
2021/10/20 08:42:57;;;;;;;6.55;4.05;;;23.60;91.90;;;;;;5058583;28;20049;-58
2021/10/20 08:45:25;;;;;;;4.38;3.72;;;23.70;91.80;;;;;;5041885;28;20415;-58
2021/10/20 08:47:54;;;;;;;5.93;3.80;;;23.70;91.70;;;;;;5058051;28;20051;-58
2021/10/20 08:50:25;;;;;;;5.72;3.47;;;23.70;91.60;;;;;;5040957;28;20053;-58
2021/10/20 08:52:53;;;;;;;5.28;3.50;;;23.80;91.40;;;;;;5040575;28;20033;-58
2021/10/20 08:55:22;;;;;;;6.55;3.90;;;23.90;91.50;;;;;;5040192;28;20498;-56
2021/10/20 08:57:51;;;;;;;6.18;4.43;;;23.90;91.40;;;;;;5057058;28;20044;-57
2021/10/20 09:00:19;;;;;;;7.43;4.57;;;23.90;91.70;;;;;;5040476;28;20139;-56
2021/10/20 09:02:49;;;;;;;8.00;3.95;;;23.90;92.80;;;;;;5056502;28;20058;-57
2021/10/20 09:05:22;;;;;;;7.63;5.03;;;23.90;91.70;;;;;;5056566;28;20079;-50
2021/10/20 09:07:53;;;;;;;5.82;4.43;;;23.90;92.60;;;;;;5056827;28;20048;-57
2021/10/20 09:10:23;;;;;;;9.63;4.13;;;24.00;92.20;;;;;;5039926;28;20363;-57
2021/10/20 09:12:54;;;;;;;5.65;4.38;;;23.90;91.40;;;;;;5039955;28;20055;-57
2021/10/20 09:15:24;;;;;;;14.43;4.25;;;24.00;91.50;;;;;;5039312;28;20091;-56
2021/10/20 09:18:03;;;;;;;7.55;4.30;;;24.10;91.30;;;;;;5023008;28;20080;-57
2021/10/20 09:20:33;;;;;;;31.05;7.35;;;24.10;91.30;;;;;;5039681;28;20126;-57
2021/10/20 09:23:08;;;;;;;7.25;4.43;;;24.00;91.50;;;;;;5056518;28;20071;-57
2021/10/20 09:25:43;;;;;;;7.10;3.80;;;24.10;90.90;;;;;;5039922;28;20398;-57
2021/10/20 09:28:22;;;;;;;3.97;3.13;;;24.10;90.50;;;;;;5056571;28;20044;-57
2021/10/20 09:30:51;;;;;;;7.70;3.67;;;24.10;90.20;;;;;;5074322;28;20044;-57
2021/10/20 09:33:19;;;;;;;6.07;3.88;;;24.20;90.20;;;;;;5056260;28;20131;-58
2021/10/20 09:35:47;;;;;;;6.88;4.03;;;24.20;90.10;;;;;;5038450;28;20083;-57
2021/10/20 09:38:15;;;;;;;5.93;3.00;;;24.20;89.60;;;;;;5074359;28;20128;-58
2021/10/20 09:40:45;;;;;;;5.18;3.38;;;24.10;89.30;;;;;;5056577;28;20086;-54
2021/10/20 09:43:18;;;;;;;4.93;3.15;;;24.00;89.70;;;;;;5056045;28;20106;-57
2021/10/20 09:45:47;;;;;;;8.32;3.65;;;24.00;90.10;;;;;;5073886;28;20051;-57
2021/10/20 09:48:22;;;;;;;5.30;3.92;;;24.10;89.90;;;;;;5039525;28;20048;-58
2021/10/20 09:51:09;;;;;;;8.02;4.18;;;24.00;89.50;;;;;;5073399;28;20522;-57
2021/10/20 09:53:43;;;;;;;7.55;3.67;;;24.10;89.80;;;;;;5073596;28;20049;-57
2021/10/20 09:56:31;;;;;;;4.82;3.30;;;24.00;89.40;;;;;;5055956;28;20055;-58
2021/10/20 09:58:59;;;;;;;5.13;3.30;;;24.00;89.10;;;;;;5039176;28;20044;-58
2021/10/20 10:01:28;;;;;;;8.00;3.13;;;24.10;88.90;;;;;;5055771;28;20471;-58
2021/10/20 10:03:58;;;;;;;10.63;3.83;;;24.20;88.60;;;;;;5038815;28;20475;-58
2021/10/20 10:06:26;;;;;;;6.35;3.22;;;24.20;88.40;;;;;;5055575;28;20051;-58
2021/10/20 10:08:55;;;;;;;5.97;3.22;;;24.10;87.90;;;;;;5038961;28;20052;-58
2021/10/20 10:11:23;;;;;;;5.68;3.53;;;24.20;88.10;;;;;;5039589;28;20064;-58
2021/10/20 10:13:54;;;;;;;5.68;3.70;;;24.10;87.70;;;;;;5040374;28;20060;-57
2021/10/20 10:16:27;;;;;;;10.25;4.18;;;24.10;88.00;;;;;;5056817;28;20404;-57
2021/10/20 10:18:58;;;;;;;7.50;3.45;;;24.00;88.80;;;;;;5074497;28;20094;-57
2021/10/20 10:21:41;;;;;;;6.78;3.45;;;24.10;89.00;;;;;;5066502;28;20036;-57
2021/10/20 10:24:12;;;;;;;6.68;3.70;;;24.10;89.00;;;;;;5074230;28;20106;-59
2021/10/20 10:27:08;;;;;;;6.30;4.20;;;24.20;89.00;;;;;;5023749;28;20044;-57
2021/10/20 10:29:52;;;;;;;9.30;4.85;;;24.10;89.00;;;;;;5030807;28;20078;-57
2021/10/20 10:32:28;;;;;;;7.68;4.40;;;24.20;89.30;;;;;;5024553;28;20052;-56
2021/10/20 10:34:56;;;;;;;7.85;4.65;;;24.30;89.00;;;;;;5074250;28;20425;-57
2021/10/20 10:37:30;;;;;;;8.07;4.28;;;24.30;88.60;;;;;;5040041;28;20061;-58
2021/10/20 10:40:25;;;;;;;5.63;3.25;;;24.40;88.30;;;;;;5056084;28;20127;-57
2021/10/20 10:42:52;;;;;;;7.35;4.75;;;24.40;87.80;;;;;;5056586;28;20032;-57
2021/10/20 10:45:23;;;;;;;8.02;4.38;;;24.40;88.20;;;;;;5056326;28;20124;-58
2021/10/20 10:47:57;;;;;;;5.18;3.75;;;24.30;88.30;;;;;;5039753;28;20054;-58
2021/10/20 10:50:47;;;;;;;5.63;3.65;;;24.00;87.80;;;;;;5056322;28;20040;-57
2021/10/20 10:53:32;;;;;;;6.97;4.30;;;24.10;88.90;;;;;;5056194;28;20510;-57
2021/10/20 10:56:07;;;;;;;5.60;3.90;;;24.00;89.90;;;;;;5074327;28;20127;-57
2021/10/20 10:58:53;;;;;;;7.05;4.40;;;23.90;90.30;;;;;;5040084;28;20291;-57
2021/10/20 11:01:46;;;;;;;7.22;3.70;;;23.90;90.40;;;;;;5073712;28;20056;-59
2021/10/20 11:04:17;;;;;;;7.93;4.82;;;24.00;90.30;;;;;;5055973;28;20147;-59
2021/10/20 11:06:45;;;;;;;6.10;4.35;;;24.10;90.10;;;;;;5073829;28;20048;-59
2021/10/20 11:09:20;;;;;;;5.07;4.05;;;24.10;89.60;;;;;;5055858;28;20052;-59
2021/10/20 11:11:51;;;;;;;7.97;4.82;;;24.10;88.80;;;;;;5039095;28;20048;-59
2021/10/20 11:14:27;;;;;;;7.72;4.50;;;24.00;89.00;;;;;;5039077;28;20072;-59
2021/10/20 11:17:05;;;;;;;9.90;5.07;;;23.80;89.60;;;;;;5055599;28;20453;-58
2021/10/20 11:19:33;;;;;;;5.45;3.70;;;23.60;90.20;;;;;;5073479;28;20139;-59
2021/10/20 11:22:05;;;;;;;6.43;4.53;;;23.70;90.50;;;;;;5039030;28;20080;-59
2021/10/20 11:24:34;;;;;;;6.38;3.92;;;23.80;90.50;;;;;;5055425;28;20106;-58
2021/10/20 11:27:05;;;;;;;6.60;3.70;;;24.00;90.10;;;;;;5073362;28;20178;-58
2021/10/20 11:29:47;;;;;;;5.90;4.22;;;24.00;89.90;;;;;;5055515;28;20495;-58
2021/10/20 11:32:17;;;;;;;6.10;3.83;;;24.10;90.00;;;;;;5073481;28;20545;-58
2021/10/20 11:34:45;;;;;;;6.45;4.38;;;24.00;88.20;;;;;;5055318;28;20463;-58
2021/10/20 11:37:19;;;;;;;7.63;5.07;;;23.90;88.20;;;;;;5055507;28;20100;-58
2021/10/20 11:39:55;;;;;;;6.38;4.18;;;23.80;87.80;;;;;;5073557;28;20040;-58
2021/10/20 11:42:23;;;;;;;;;;;23.70;88.10;;;;;;5073671;28;20090;-59
2021/10/20 11:44:52;;;;;;;5.60;4.43;;;23.50;88.30;;;;;;5055436;28;19983;-58
2021/10/20 11:47:21;;;;;;;6.00;4.10;;;23.50;89.40;;;;;;5038296;28;20052;-58
2021/10/20 11:49:51;;;;;;;7.97;4.35;;;23.60;89.80;;;;;;5055332;28;20048;-59
2021/10/20 11:52:21;;;;;;;8.18;4.53;;;23.60;90.10;;;;;;5055218;28;20044;-58
2021/10/20 11:54:52;;;;;;;5.68;4.05;;;23.70;89.00;;;;;;5055183;28;20040;-58
2021/10/20 11:57:20;;;;;;;7.30;4.25;;;23.60;89.50;;;;;;5022801;28;20062;-58
2021/10/20 11:59:48;;;;;;;5.38;3.42;;;23.60;89.80;;;;;;5026031;28;20459;-58
2021/10/20 12:02:16;;;;;;;7.30;4.07;;;23.60;90.40;;;;;;5030517;28;20538;-59
2021/10/20 12:04:45;;;;;;;5.13;3.83;;;23.60;90.10;;;;;;5074876;28;20040;-60
2021/10/20 12:07:16;;;;;;;7.85;4.10;;;23.60;90.50;;;;;;5034627;28;20518;-59
2021/10/20 12:09:47;;;;;;;8.55;4.53;;;23.60;90.50;;;;;;5051085;28;20045;-59
2021/10/20 12:12:18;;;;;;;6.15;3.45;;;23.70;90.40;;;;;;5042978;28;20390;-59
2021/10/20 12:14:47;;;;;;;5.30;3.58;;;23.80;90.30;;;;;;5052657;28;20051;-58
2021/10/20 12:17:15;;;;;;;5.32;3.35;;;23.90;90.00;;;;;;5034811;28;20097;-59
2021/10/20 12:19:44;;;;;;;7.35;3.58;;;23.80;89.30;;;;;;5050550;28;20127;-58
2021/10/20 12:22:14;;;;;;;7.93;3.88;;;23.70;88.50;;;;;;5030757;28;20079;-60
2021/10/20 12:24:48;;;;;;;7.07;3.80;;;23.70;88.60;;;;;;5036302;28;20053;-59
2021/10/20 12:27:19;;;;;;;5.72;3.70;;;23.60;88.70;;;;;;5039791;28;20064;-58
2021/10/20 12:29:52;;;;;;;6.53;4.03;;;23.60;88.80;;;;;;5038129;28;20044;-59
2021/10/20 12:32:26;;;;;;;6.78;3.97;;;23.50;88.60;;;;;;5013299;28;20072;-58
2021/10/20 12:34:55;;;;;;;7.97;3.65;;;23.30;87.70;;;;;;5017643;28;20044;-58
2021/10/20 12:37:47;;;;;;;6.70;3.97;;;23.10;87.30;;;;;;5053922;28;20048;-58
2021/10/20 12:40:24;;;;;;;5.78;3.50;;;23.10;88.50;;;;;;5040856;28;20049;-58
2021/10/20 12:42:57;;;;;;;6.00;4.10;;;23.00;88.70;;;;;;5068735;28;20313;-59
2021/10/20 12:45:30;;;;;;;5.88;3.63;;;23.00;88.40;;;;;;5030645;28;20047;-58
2021/10/20 12:48:01;;;;;;;8.00;4.05;;;22.90;88.80;;;;;;5068927;28;20048;-59
2021/10/20 12:50:34;;;;;;;6.35;4.20;;;22.90;87.70;;;;;;5074682;28;20045;-59
2021/10/20 12:53:06;;;;;;;8.45;4.47;;;22.90;87.40;;;;;;5040622;28;20517;-58
2021/10/20 12:55:45;;;;;;;12.23;4.65;;;22.90;88.20;;;;;;5075682;28;20094;-59